createdAt,value
2017-10-28T00:02:14.205Z,84.99
2017-10-28T00:04:41.871Z,84.69
2017-10-28T00:07:09.440Z,84.76
2017-10-28T00:09:37.040Z,85.12
2017-10-28T00:12:04.602Z,85.15
2017-10-28T00:14:32.174Z,85.19
2017-10-28T00:16:59.773Z,85.22
2017-10-28T00:19:27.475Z,85.22
2017-10-28T00:21:55.064Z,85.05
2017-10-28T00:24:22.648Z,85.08
2017-10-28T00:26:50.261Z,85.46
2017-10-28T00:29:17.831Z,85.26
2017-10-28T00:31:51.102Z,85.47
2017-10-28T00:34:24.126Z,85.79
2017-10-28T00:36:51.738Z,85.33
2017-10-28T00:39:19.290Z,85.68
2017-10-28T00:41:46.931Z,85.53
2017-10-28T00:44:14.497Z,85.96
2017-10-28T00:46:42.093Z,85.73
2017-10-28T00:49:09.659Z,85.72
2017-10-28T00:51:37.212Z,85.95
2017-10-28T00:54:04.788Z,86.01
2017-10-28T00:56:32.829Z,86.12
2017-10-28T00:59:00.378Z,86.12
2017-10-28T01:01:29.517Z,86.05
2017-10-28T01:03:57.225Z,86.43
2017-10-28T01:06:24.804Z,86.39
2017-10-28T01:08:52.358Z,86.32
2017-10-28T01:11:20.000Z,86.72
2017-10-28T01:13:47.534Z,86.61
2017-10-28T01:16:15.239Z,86.46
2017-10-28T01:18:42.806Z,86.43
2017-10-28T01:21:10.412Z,86.57
2017-10-28T01:23:38.014Z,86.27
2017-10-28T01:26:05.633Z,86.53
2017-10-28T01:28:33.185Z,86.86
2017-10-28T01:31:00.766Z,86.68
2017-10-28T01:33:28.364Z,86.89
2017-10-28T01:35:56.416Z,87.10
2017-10-28T01:38:24.119Z,86.85
2017-10-28T01:40:51.671Z,87.16
2017-10-28T01:43:19.414Z,87.06
2017-10-28T01:45:46.974Z,87.41
2017-10-28T01:48:14.573Z,87.22
2017-10-28T01:50:42.169Z,87.20
2017-10-28T01:53:09.770Z,87.13
2017-10-28T01:55:38.705Z,87.23
2017-10-28T01:58:06.306Z,87.23
2017-10-28T02:00:33.872Z,86.96
2017-10-28T02:03:01.461Z,87.23
2017-10-28T02:05:29.035Z,87.18
2017-10-28T02:07:56.652Z,87.29
2017-10-28T02:10:24.206Z,87.47
2017-10-28T02:12:51.798Z,87.52
2017-10-28T02:15:19.355Z,87.52
2017-10-28T02:17:46.947Z,87.41
2017-10-28T02:20:14.501Z,87.33
2017-10-28T02:22:42.073Z,87.23
2017-10-28T02:25:10.033Z,87.24
2017-10-28T02:27:37.657Z,87.51
2017-10-28T02:30:05.220Z,87.58
2017-10-28T02:32:33.201Z,87.39
2017-10-28T02:35:01.543Z,87.41
2017-10-28T02:37:29.142Z,87.43
2017-10-28T02:39:56.732Z,87.92
2017-10-28T02:42:24.806Z,87.74
2017-10-28T02:44:52.393Z,87.83
2017-10-28T02:47:20.019Z,87.95
2017-10-28T02:49:47.579Z,88.13
2017-10-28T02:52:15.183Z,88.02
2017-10-28T02:54:42.756Z,88.13
2017-10-28T02:57:10.329Z,88.37
2017-10-28T02:59:37.913Z,88.18
2017-10-28T03:02:05.515Z,88.05
2017-10-28T03:04:33.099Z,87.92
2017-10-28T03:07:00.665Z,87.91
2017-10-28T03:09:28.273Z,87.99
2017-10-28T03:11:55.835Z,88.00
2017-10-28T03:14:23.447Z,88.16
2017-10-28T03:16:50.987Z,88.02
2017-10-28T03:19:18.559Z,88.19
2017-10-28T03:21:46.129Z,88.18
2017-10-28T03:24:13.696Z,88.21
2017-10-28T03:26:41.602Z,88.24
2017-10-28T03:29:09.180Z,88.29
2017-10-28T03:31:36.738Z,88.25
2017-10-28T03:34:04.341Z,88.13
2017-10-28T03:36:31.929Z,88.37
2017-10-28T03:38:59.640Z,88.33
2017-10-28T03:41:27.223Z,88.28
2017-10-28T03:43:54.802Z,88.38
2017-10-28T03:46:22.377Z,88.39
2017-10-28T03:48:50.609Z,88.57
2017-10-28T03:51:18.201Z,88.50
2017-10-28T03:53:45.792Z,88.78
2017-10-28T03:56:13.347Z,88.53
2017-10-28T03:58:42.267Z,88.69
2017-10-28T04:01:09.884Z,88.75
2017-10-28T04:03:37.942Z,89.03
2017-10-28T04:06:05.527Z,89.04
2017-10-28T04:08:33.126Z,89.17
2017-10-28T04:11:00.682Z,89.19
2017-10-28T04:13:28.235Z,89.39
2017-10-28T04:15:55.813Z,89.36
2017-10-28T04:18:23.375Z,89.51
2017-10-28T04:20:51.126Z,89.59
2017-10-28T04:23:18.683Z,89.76
2017-10-28T04:25:46.461Z,89.62
2017-10-28T04:28:14.028Z,89.81
2017-10-28T04:30:41.726Z,89.77
2017-10-28T04:33:09.295Z,89.60
2017-10-28T04:35:36.860Z,89.68
2017-10-28T04:38:04.411Z,89.62
2017-10-28T04:40:32.015Z,89.77
2017-10-28T04:43:00.306Z,89.68
2017-10-28T04:45:27.905Z,89.79
2017-10-28T04:47:55.462Z,89.91
2017-10-28T04:50:23.030Z,89.98
2017-10-28T04:52:50.605Z,90.27
2017-10-28T04:55:18.204Z,90.38
2017-10-28T04:57:46.137Z,90.47
2017-10-28T05:00:13.898Z,90.55
2017-10-28T05:02:41.452Z,90.61
2017-10-28T05:05:09.040Z,90.56
2017-10-28T05:07:36.610Z,90.69
2017-10-28T05:10:04.212Z,90.47
2017-10-28T05:12:31.810Z,90.44
2017-10-28T05:14:59.421Z,90.60
2017-10-28T05:17:27.411Z,90.58
2017-10-28T05:19:55.038Z,90.65
2017-10-28T05:22:22.647Z,90.78
2017-10-28T05:24:50.251Z,90.81
2017-10-28T05:27:18.215Z,90.87
2017-10-28T05:29:45.792Z,90.79
2017-10-28T05:32:13.376Z,90.72
2017-10-28T05:34:40.966Z,90.67
2017-10-28T05:37:08.564Z,90.75
2017-10-28T05:39:36.133Z,90.82
2017-10-28T05:42:03.717Z,90.65
2017-10-28T05:44:32.088Z,90.60
2017-10-28T05:46:59.664Z,90.55
2017-10-28T05:49:27.246Z,90.81
2017-10-28T05:51:54.838Z,90.48
2017-10-28T05:54:22.410Z,90.65
2017-10-28T05:56:50.003Z,90.73
2017-10-28T05:59:17.572Z,90.73
2017-10-28T06:01:45.632Z,90.63
2017-10-28T06:04:13.190Z,90.54
2017-10-28T06:06:40.966Z,90.88
2017-10-28T06:09:08.530Z,90.64
2017-10-28T06:11:36.150Z,90.90
2017-10-28T06:14:03.710Z,90.67
2017-10-28T06:16:31.286Z,90.84
2017-10-28T06:18:58.881Z,90.22
2017-10-28T06:21:26.461Z,90.68
2017-10-28T06:23:54.030Z,90.39
2017-10-28T06:26:21.630Z,90.47
2017-10-28T06:28:49.206Z,90.22
2017-10-28T06:31:16.900Z,90.04
2017-10-28T06:33:44.455Z,90.33
2017-10-28T06:36:12.029Z,90.21
2017-10-28T06:38:39.613Z,89.99
2017-10-28T06:41:07.208Z,89.83
2017-10-28T06:43:34.766Z,89.76
2017-10-28T06:46:02.667Z,89.85
2017-10-28T06:48:30.247Z,89.87
2017-10-28T06:50:57.829Z,89.88
2017-10-28T06:53:25.411Z,89.80
2017-10-28T06:55:52.980Z,89.89
2017-10-28T06:58:20.666Z,89.50
2017-10-28T07:00:48.254Z,89.39
2017-10-28T07:03:15.863Z,89.37
2017-10-28T07:05:43.532Z,89.53
2017-10-28T07:08:11.132Z,89.26
2017-10-28T07:10:38.686Z,89.17
2017-10-28T07:13:06.607Z,88.95
2017-10-28T07:15:34.177Z,89.05
2017-10-28T07:18:01.815Z,88.84
2017-10-28T07:20:29.435Z,88.74
2017-10-28T07:22:57.223Z,88.57
2017-10-28T07:25:24.800Z,88.29
2017-10-28T07:27:52.593Z,88.37
2017-10-28T07:30:20.184Z,88.23
2017-10-28T07:32:47.747Z,87.95
2017-10-28T07:35:15.311Z,88.05
2017-10-28T07:37:42.896Z,87.66
2017-10-28T07:40:10.499Z,87.81
2017-10-28T07:42:38.092Z,87.83
2017-10-28T07:45:05.652Z,87.48
2017-10-28T07:47:33.244Z,87.41
2017-10-28T07:50:00.826Z,87.49
2017-10-28T07:52:28.764Z,87.70
2017-10-28T07:54:56.385Z,87.46
2017-10-28T07:57:23.936Z,87.87
2017-10-28T07:59:51.507Z,88.11
2017-10-28T08:02:19.085Z,88.12
2017-10-28T08:04:46.813Z,88.06
2017-10-28T08:07:14.371Z,87.79
2017-10-28T08:09:41.975Z,87.48
2017-10-28T08:12:09.828Z,87.33
2017-10-28T08:14:37.452Z,86.77
2017-10-28T08:17:05.051Z,86.88
2017-10-28T08:19:32.688Z,86.73
2017-10-28T08:22:00.410Z,86.76
2017-10-28T08:24:28.117Z,86.74
2017-10-28T08:26:55.688Z,85.42
2017-10-28T08:29:23.259Z,84.87
2017-10-28T08:31:50.832Z,84.07
2017-10-28T08:34:18.426Z,83.63
2017-10-28T08:36:46.039Z,83.20
2017-10-28T08:39:13.641Z,82.34
2017-10-28T08:41:41.204Z,82.77
2017-10-28T08:44:08.850Z,82.59
2017-10-28T08:46:36.417Z,82.32
2017-10-28T08:49:04.040Z,82.26
2017-10-28T08:51:31.653Z,81.99
2017-10-28T08:53:59.256Z,81.57
2017-10-28T08:56:26.926Z,81.46
2017-10-28T08:58:54.522Z,80.33
2017-10-28T09:01:22.104Z,80.72
2017-10-28T09:03:49.722Z,80.21
2017-10-28T09:06:17.359Z,80.52
2017-10-28T09:08:44.961Z,80.48
2017-10-28T09:11:12.568Z,79.91
2017-10-28T09:13:40.145Z,79.76
2017-10-28T09:16:07.751Z,78.79
2017-10-28T09:18:35.673Z,78.75
2017-10-28T09:21:03.251Z,79.25
2017-10-28T09:23:30.844Z,78.88
2017-10-28T09:25:58.545Z,79.15
2017-10-28T09:28:26.103Z,78.41
2017-10-28T09:30:53.683Z,78.05
2017-10-28T09:33:21.236Z,77.97
2017-10-28T09:35:48.869Z,77.83
2017-10-28T09:38:16.431Z,78.17
2017-10-28T09:40:43.989Z,78.15
2017-10-28T09:43:11.607Z,77.79
2017-10-28T09:45:39.182Z,77.84
2017-10-28T09:48:06.756Z,78.02
2017-10-28T09:50:34.352Z,77.29
2017-10-28T09:53:01.942Z,77.55
2017-10-28T09:55:29.518Z,77.80
2017-10-28T09:57:57.524Z,77.16
2017-10-28T10:00:25.262Z,76.70
2017-10-28T10:02:52.886Z,77.22
2017-10-28T10:05:20.452Z,77.15
2017-10-28T10:07:48.175Z,77.15
2017-10-28T10:10:15.736Z,77.34
2017-10-28T10:12:43.338Z,77.25
2017-10-28T10:15:10.930Z,76.36
2017-10-28T10:17:38.518Z,76.16
2017-10-28T10:20:06.218Z,75.82
2017-10-28T10:22:33.779Z,76.18
2017-10-28T10:25:01.388Z,75.21
2017-10-28T10:27:28.985Z,76.08
2017-10-28T10:29:56.600Z,75.65
2017-10-28T10:32:24.184Z,75.66
2017-10-28T10:34:51.787Z,74.86
2017-10-28T10:37:19.365Z,74.25
2017-10-28T10:39:46.930Z,74.25
2017-10-28T10:42:14.653Z,74.31
2017-10-28T10:44:42.328Z,74.21
2017-10-28T10:47:10.127Z,73.17
2017-10-28T10:49:37.693Z,73.80
2017-10-28T10:52:05.380Z,71.98
2017-10-28T10:54:32.978Z,72.52
2017-10-28T10:57:01.038Z,72.45
2017-10-28T10:59:28.631Z,72.14
2017-10-28T11:01:56.222Z,73.18
2017-10-28T11:04:23.823Z,72.81
2017-10-28T11:06:51.423Z,73.29
2017-10-28T11:09:19.027Z,73.56
2017-10-28T11:11:46.627Z,73.06
2017-10-28T11:14:14.553Z,72.02
2017-10-28T11:16:42.127Z,72.24
2017-10-28T11:19:09.766Z,72.89
2017-10-28T11:21:37.588Z,70.10
2017-10-28T11:24:05.187Z,69.94
2017-10-28T11:26:33.133Z,68.11
2017-10-28T11:29:00.698Z,69.47
2017-10-28T11:31:28.268Z,69.34
2017-10-28T11:33:56.114Z,68.13
2017-10-28T11:36:23.690Z,68.72
2017-10-28T11:38:51.277Z,68.81
2017-10-28T11:41:18.830Z,67.30
2017-10-28T11:43:46.433Z,67.50
2017-10-28T11:46:14.019Z,67.87
2017-10-28T11:48:41.750Z,68.46
2017-10-28T11:51:09.500Z,68.19
2017-10-28T11:53:37.054Z,69.02
2017-10-28T11:56:04.644Z,68.73
2017-10-28T11:58:32.218Z,68.42
2017-10-28T12:00:59.827Z,68.33
2017-10-28T12:03:27.397Z,69.61
2017-10-28T12:05:54.976Z,68.17
2017-10-28T12:08:22.616Z,68.81
2017-10-28T12:10:50.206Z,69.11
2017-10-28T12:13:17.765Z,67.88
2017-10-28T12:15:45.367Z,68.22
2017-10-28T12:18:12.914Z,67.94
2017-10-28T12:20:40.476Z,68.06
2017-10-28T12:23:08.080Z,68.75
2017-10-28T12:25:35.654Z,68.80
2017-10-28T12:28:03.675Z,69.63
2017-10-28T12:30:31.267Z,69.94
2017-10-28T12:32:58.883Z,69.58
2017-10-28T12:35:26.434Z,69.15
2017-10-28T12:37:54.030Z,68.26
2017-10-28T12:40:21.645Z,68.58
2017-10-28T12:42:49.198Z,68.55
2017-10-28T12:45:16.798Z,68.60
2017-10-28T12:47:44.339Z,68.14
2017-10-28T12:50:11.955Z,68.61
2017-10-28T12:52:39.522Z,69.01
2017-10-28T12:55:07.156Z,68.02
2017-10-28T12:57:34.867Z,67.96
2017-10-28T13:00:02.469Z,67.73
2017-10-28T13:02:30.073Z,67.03
2017-10-28T13:04:57.635Z,66.48
2017-10-28T13:07:25.654Z,67.63
2017-10-28T13:09:53.242Z,66.99
2017-10-28T13:12:20.844Z,68.57
2017-10-28T13:14:48.455Z,68.71
2017-10-28T13:17:16.320Z,67.49
2017-10-28T13:19:43.910Z,68.16
2017-10-28T13:22:13.238Z,67.97
2017-10-28T13:24:40.865Z,68.02
2017-10-28T13:27:08.457Z,68.85
2017-10-28T13:29:36.111Z,69.70
2017-10-28T13:32:04.277Z,70.20
2017-10-28T13:34:31.983Z,69.99
2017-10-28T13:36:59.567Z,70.46
2017-10-28T13:39:32.654Z,70.12
2017-10-28T13:42:00.245Z,68.80
2017-10-28T13:44:28.473Z,68.83
2017-10-28T13:46:56.499Z,69.30
2017-10-28T13:49:24.106Z,69.18
2017-10-28T13:51:51.712Z,69.71
2017-10-28T13:54:19.263Z,69.01
2017-10-28T13:56:47.508Z,69.23
2017-10-28T13:59:15.472Z,69.08
2017-10-28T14:01:43.610Z,69.08
2017-10-28T14:04:11.169Z,67.97
2017-10-28T14:06:39.176Z,68.04
2017-10-28T14:09:06.789Z,69.01
2017-10-28T14:11:34.389Z,67.79
2017-10-28T14:14:01.984Z,68.14
2017-10-28T14:16:29.568Z,68.96
2017-10-28T14:18:59.878Z,68.77
2017-10-28T14:21:29.290Z,69.09
2017-10-28T14:23:58.280Z,68.78
2017-10-28T14:26:25.878Z,69.03
2017-10-28T14:28:56.621Z,68.79
2017-10-28T14:31:24.216Z,68.78
2017-10-28T14:33:51.844Z,68.55
2017-10-28T14:36:19.458Z,68.27
2017-10-28T14:38:49.194Z,67.82
2017-10-28T14:41:16.806Z,68.12
2017-10-28T14:43:44.401Z,68.23
2017-10-28T14:46:11.975Z,68.01
2017-10-28T14:48:40.906Z,68.14
2017-10-28T14:51:08.495Z,68.51
2017-10-28T14:53:36.090Z,67.29
2017-10-28T14:56:03.666Z,68.11
2017-10-28T14:58:32.426Z,67.26
2017-10-28T15:00:59.992Z,67.19
2017-10-28T15:03:27.614Z,66.09
2017-10-28T15:05:55.201Z,66.91
2017-10-28T15:08:22.783Z,66.66
2017-10-28T15:10:52.206Z,66.18
2017-10-28T15:13:19.783Z,65.95
2017-10-28T15:15:47.523Z,66.21
2017-10-28T15:18:15.111Z,66.07
2017-10-28T15:20:42.707Z,66.39
2017-10-28T15:23:10.510Z,66.51
2017-10-28T15:25:38.132Z,66.29
2017-10-28T15:28:06.195Z,66.07
2017-10-28T15:30:34.106Z,66.29
2017-10-28T15:33:01.714Z,67.06
2017-10-28T15:35:29.280Z,66.31
2017-10-28T15:37:56.892Z,66.46
2017-10-28T15:40:24.889Z,65.93
2017-10-28T15:42:54.316Z,66.04
2017-10-28T15:45:21.905Z,65.62
2017-10-28T15:47:49.538Z,65.83
2017-10-28T15:50:18.378Z,66.61
2017-10-28T15:52:47.222Z,66.65
2017-10-28T15:55:14.816Z,66.19
2017-10-28T15:57:42.384Z,66.39
2017-10-28T16:00:09.984Z,66.36
2017-10-28T16:02:37.612Z,66.57
2017-10-28T16:05:06.244Z,66.98
2017-10-28T16:07:33.810Z,67.13
2017-10-28T16:10:01.385Z,67.29
2017-10-28T16:12:28.976Z,66.98
2017-10-28T16:14:56.566Z,66.96
2017-10-28T16:17:24.278Z,67.27
2017-10-28T16:19:52.346Z,67.28
2017-10-28T16:22:19.940Z,67.13
2017-10-28T16:24:47.505Z,67.17
2017-10-28T16:27:15.288Z,66.96
2017-10-28T16:29:42.874Z,67.43
2017-10-28T16:32:10.443Z,67.17
2017-10-28T16:34:38.147Z,67.65
2017-10-28T16:37:05.733Z,67.65
2017-10-28T16:39:33.335Z,67.47
2017-10-28T16:42:00.926Z,67.27
2017-10-28T16:44:28.548Z,66.73
2017-10-28T16:46:56.630Z,67.18
2017-10-28T16:49:24.251Z,67.09
2017-10-28T16:51:51.896Z,66.85
2017-10-28T16:54:19.512Z,66.87
2017-10-28T16:56:47.138Z,67.43
2017-10-28T16:59:14.718Z,66.74
2017-10-28T17:01:42.329Z,67.62
2017-10-28T17:04:09.921Z,67.20
2017-10-28T17:06:37.531Z,66.82
2017-10-28T17:09:05.248Z,66.72
2017-10-28T17:11:33.306Z,67.67
2017-10-28T17:14:00.942Z,67.62
2017-10-28T17:16:28.556Z,67.28
2017-10-28T17:18:56.181Z,67.43
2017-10-28T17:21:24.874Z,67.82
2017-10-28T17:23:53.905Z,67.51
2017-10-28T17:26:22.548Z,67.19
2017-10-28T17:28:50.180Z,67.70
2017-10-28T17:31:18.202Z,67.68
2017-10-28T17:33:45.858Z,67.31
2017-10-28T17:36:14.859Z,67.06
2017-10-28T17:38:43.270Z,66.92
2017-10-28T17:41:11.578Z,67.20
2017-10-28T17:43:39.839Z,67.44
2017-10-28T17:46:07.527Z,67.98
2017-10-28T17:48:36.067Z,67.45
2017-10-28T17:51:04.286Z,67.65
2017-10-28T17:53:33.920Z,67.63
2017-10-28T17:56:05.025Z,67.51
2017-10-28T17:58:32.727Z,67.27
2017-10-28T18:01:00.466Z,67.46
2017-10-28T18:03:28.243Z,67.72
2017-10-28T18:05:56.838Z,67.83
2017-10-28T18:08:24.706Z,67.63
2017-10-28T18:10:52.391Z,67.92
2017-10-28T18:13:21.252Z,67.82
2017-10-28T18:15:48.948Z,68.06
2017-10-28T18:18:16.656Z,68.23
2017-10-28T18:20:44.510Z,67.92
2017-10-28T18:23:12.194Z,68.41
2017-10-28T18:25:40.066Z,68.15
2017-10-28T18:28:10.086Z,68.18
2017-10-28T18:30:38.127Z,68.20
2017-10-28T18:33:05.840Z,67.22
2017-10-28T18:35:34.640Z,67.91
2017-10-28T18:38:03.849Z,68.32
2017-10-28T18:40:31.524Z,68.10
2017-10-28T18:42:59.204Z,68.03
2017-10-28T18:45:26.858Z,67.58
2017-10-28T18:47:54.613Z,67.88
2017-10-28T18:50:23.442Z,67.71
2017-10-28T18:52:52.241Z,67.36
2017-10-28T18:55:19.892Z,68.09
2017-10-28T18:57:47.572Z,67.96
2017-10-28T19:00:16.002Z,67.50
2017-10-28T19:02:44.104Z,68.01
2017-10-28T19:05:11.847Z,67.41
2017-10-28T19:07:39.963Z,67.47
2017-10-28T19:10:07.741Z,67.44
2017-10-28T19:12:35.532Z,67.48
2017-10-28T19:15:03.367Z,67.69
2017-10-28T19:17:32.026Z,67.53
2017-10-28T19:20:00.050Z,67.71
2017-10-28T19:22:27.862Z,68.64
2017-10-28T19:24:55.728Z,68.19
2017-10-28T19:27:23.527Z,68.51
2017-10-28T19:29:51.287Z,68.05
2017-10-28T19:32:18.997Z,68.95
2017-10-28T19:34:46.863Z,68.88
2017-10-28T19:37:14.759Z,69.06
2017-10-28T19:39:42.930Z,68.42
2017-10-28T19:42:10.716Z,68.38
2017-10-28T19:44:39.093Z,68.36
2017-10-28T19:47:06.879Z,69.07
2017-10-28T19:49:34.712Z,68.98
2017-10-28T19:52:02.798Z,69.07
2017-10-28T19:54:30.512Z,68.91
2017-10-28T19:56:58.504Z,69.01
2017-10-28T19:59:26.594Z,69.63
2017-10-28T20:01:54.389Z,69.80
2017-10-28T20:04:22.348Z,69.95
2017-10-28T20:06:50.065Z,70.58
2017-10-28T20:09:17.872Z,72.34
2017-10-28T20:11:45.579Z,74.61
2017-10-28T20:14:13.658Z,75.15
2017-10-28T20:16:42.770Z,76.85
2017-10-28T20:19:10.583Z,78.22
2017-10-28T20:21:38.524Z,78.43
2017-10-28T20:24:06.294Z,78.63
2017-10-28T20:26:34.091Z,78.59
2017-10-28T20:29:02.033Z,79.85
2017-10-28T20:31:29.771Z,79.93
2017-10-28T20:33:57.515Z,80.27
2017-10-28T20:36:25.232Z,80.30
2017-10-28T20:38:53.179Z,80.49
2017-10-28T20:41:20.974Z,80.21
2017-10-28T20:43:49.545Z,78.60
2017-10-28T20:46:17.579Z,79.51
2017-10-28T20:48:45.625Z,78.98
2017-10-28T20:51:13.330Z,77.81
2017-10-28T20:53:41.031Z,77.38
2017-10-28T20:56:08.695Z,76.66
2017-10-28T20:58:37.546Z,75.88
2017-10-28T21:01:05.302Z,76.29
2017-10-28T21:03:33.319Z,75.53
2017-10-28T21:06:01.612Z,76.91
2017-10-28T21:08:29.214Z,77.05
2017-10-28T21:10:56.875Z,77.09
2017-10-28T21:13:24.871Z,77.49
2017-10-28T21:15:53.294Z,77.62
2017-10-28T21:18:22.460Z,76.31
2017-10-28T21:20:50.118Z,77.46
2017-10-28T21:23:17.709Z,78.51
2017-10-28T21:25:45.714Z,78.75
2017-10-28T21:28:13.322Z,81.84
2017-10-28T21:30:40.897Z,82.80
2017-10-28T21:33:08.946Z,83.36
2017-10-28T21:35:36.544Z,83.87
2017-10-28T21:38:04.538Z,83.73
2017-10-28T21:40:32.130Z,83.68
2017-10-28T21:42:59.710Z,83.85
2017-10-28T21:45:27.781Z,83.38
2017-10-28T21:47:55.362Z,84.22
2017-10-28T21:50:22.947Z,83.70
2017-10-28T21:52:50.554Z,84.79
2017-10-28T21:55:18.155Z,85.69
2017-10-28T21:57:45.727Z,85.79
2017-10-28T22:00:13.663Z,85.99
2017-10-28T22:02:41.281Z,86.42
2017-10-28T22:05:08.872Z,86.89
2017-10-28T22:07:36.826Z,86.52
2017-10-28T22:10:04.406Z,86.60
2017-10-28T22:12:32.100Z,86.75
2017-10-28T22:15:01.064Z,86.58
2017-10-28T22:17:28.962Z,86.50
2017-10-28T22:19:56.580Z,85.64
2017-10-28T22:22:24.215Z,85.33
2017-10-28T22:24:51.860Z,85.24
2017-10-28T22:27:19.463Z,84.93
2017-10-28T22:29:47.074Z,84.40
2017-10-28T22:32:16.056Z,84.48
2017-10-28T22:34:43.682Z,85.79
2017-10-28T22:37:11.628Z,85.90
2017-10-28T22:39:40.961Z,84.87
2017-10-28T22:42:08.690Z,85.38
2017-10-28T22:44:36.278Z,85.25
2017-10-28T22:47:03.879Z,84.79
2017-10-28T22:49:31.616Z,85.54
2017-10-28T22:51:59.306Z,85.79
2017-10-28T22:54:26.880Z,85.71
2017-10-28T22:56:54.725Z,86.48
2017-10-28T22:59:22.309Z,87.46
2017-10-28T23:01:50.184Z,87.54
2017-10-28T23:04:17.927Z,87.78
2017-10-28T23:06:45.501Z,88.52
2017-10-28T23:09:13.120Z,88.70
2017-10-28T23:11:40.716Z,89.12
2017-10-28T23:14:08.728Z,89.18
2017-10-28T23:16:36.312Z,89.35
2017-10-28T23:19:04.150Z,89.29
2017-10-28T23:21:31.730Z,89.66
2017-10-28T23:23:59.876Z,89.52
2017-10-28T23:26:28.326Z,89.45
2017-10-28T23:28:56.263Z,89.36
2017-10-28T23:31:23.843Z,90.14
2017-10-28T23:33:51.443Z,89.87
2017-10-28T23:36:19.044Z,90.28
2017-10-28T23:38:46.934Z,90.00
2017-10-28T23:41:14.516Z,90.38
2017-10-28T23:43:48.210Z,90.60
2017-10-28T23:46:16.416Z,90.52
2017-10-28T23:48:44.043Z,90.10
2017-10-28T23:51:11.628Z,90.33
2017-10-28T23:53:39.889Z,90.53
2017-10-28T23:56:07.477Z,90.45
2017-10-28T23:58:35.070Z,90.07
